Terminal Aerodrome Forecast
Issued by NWS North Platte, NE

Home | Current Version | Previous Version | Text Only | Print | Product List | Glossary Off
Versions: 1 2 3 4 5 6 7 8 9 10 11 12 13 14 15 16 17 18 19 20 21 22 23 24 25 26 27 28 29

018
FTUS43 KLBF 112132 AAE
TAFVTN
TAF AMD
KVTN 112132Z 1122/1218 32013G20KT P6SM SCT090
     FM120300 34008KT P6SM BKN015
     FM120400 34007KT P6SM BKN008
     FM121600 02009KT P6SM OVC015=

USA.gov is the U.S. government's official web portal to all federal, state and local government web resources and services.